Aérodrome :







RETROUVEZ-NOUS SUR...

 
LOGIN :

S'inscrire | Disclaimer

   EN    FR    IT 

 









Légende :    VFR   VFR Marginal   IFR   IFR Intensif   IFR Très Intensif
Visi : 
Plafond : 
>= 8 km
>= 3000ft
5 à 8 km
1000 à 3000 ft
1500m à 5 km
500 à 1000 ft
800 à 1500m
200 à 500 ft
< 800m
< 200 ft
Symboles :   Orages  Brouillard  Fortes neiges  Fortes précipitations  Vent > 20 kt






- Altitude de l'aérodrome : 56 ft


KRKD - Knox County Regional

DERNIER METAR :
  • 171456Z AUTO 06010KT 10SM CLR M02/M08 A3051 RMK AO2 SLP332 T10221078 58001 FZRANO

METARs EXPIRÉS :
  • 171356Z AUTO 03009KT 10SM CLR M03/M07 A3051 RMK AO2 SLP334 T10281072 FZRANO

TAF KRKD
Valide du 17 à 12h jusqu'au 18 à 12h UTC


171138Z 1712/1812 04005KT P6SM FEW250
FM180100 06005KT P6SM BKN100
FM181000 04012G20KT P6SM OVC030



MET'MAP, la Météo Aéronautique d'un coup d'oeil ! - Copyright ORBIFLY Décembre 2007 - Disclaimer

ORBIFLY MET'MAP TEAM :

Programmation & Développement : Alexandra Zaïnal
Conception & Développement : Baudouin d'Aumeries
Co-Programmation & Développement : Marc-Olivier Méhu
Soutien technique & logistique : Manuel Goepfert

Contact : metmap@orbifly.com




SOURCES & CREDITS :

   NOAA